Aérodrome :
LOGIN :

S'inscrire | Disclaimer

   EN    FR    IT 

 










Légende :    VFR   VFR Marginal   IFR   IFR Intensif   IFR Très Intensif
Visi : 
Plafond : 
>= 8 km
>= 3000ft
5 à 8 km
1000 à 3000 ft
1500m à 5 km
500 à 1000 ft
800 à 1500m
200 à 500 ft
< 800m
< 200 ft
Symboles :   Orages  Brouillard  Fortes neiges  Fortes précipitations  Vent > 20 kt
SIGMETs :   Divers  Orages  Givrage  Turbulence  Onde Orograph.  Cendres Volcan.






- Altitude de l'aérodrome : 13 ft
- Code IATA : GOA


LIMJ - Genoa Cristoforo Colombo

DERNIER METAR :
  • 100450Z VRB07KT CAVOK 11/M00 Q1013

METARs EXPIRÉS :
  • 100420Z 02008KT 320V060 CAVOK 12/M01 Q1013
  • 100350Z 02009KT 320V080 CAVOK 13/00 Q1012
  • 100320Z 35015G26KT 310V030 CAVOK 14/M02 Q1011
  • 100220Z 35014G24KT 320V030 CAVOK 14/M01 Q1010

TAF TAF LIMJ
Valide du 10 à 00h jusqu'au 11 à 00h UTC


092300Z 1000/1024 01005KT CAVOK
BECMG 1002/1005 01015KT
TEMPO 1005/1011 01015G30KT



MET'MAP, la Météo Aéronautique d'un coup d'oeil ! - Copyright ORBIFLY Décembre 2007 - Disclaimer

ORBIFLY MET'MAP TEAM :

Programmation & Développement : Alexandra Zaïnal
Sur une idée originale de : Baudouin d'Aumeries
Assistance à la programmation : Marc-Olivier Méhu
Soutien technique & logistique : Manuel Goepfert

Contact : metmap@orbifly.com




SOURCES & CREDITS :

   NOAA